KLWT/LWT METAR and TAF weather

Enter ICAO airport designator
Station Type Date Time Source
KLWT METAR 2019/02/16 17:54 UTC NOAA

KLWT 161754Z AUTO 27008KT 1SM -SN BR BKN020 BKN026 OVC032 M17/M19 A2972 RMK AO2 SLP142 P0000 60000 T11671189 11167 21178 50006


Station Type Date Time Source
KLWT Decoded METAR 2019/02/16 17:54 UTC NOAA

LEWISTOWN MUNICIPAL AIRPORT , MT, United States (KLWT) 47-03N 109-27W
Feb 16, 2019 - 12:54 PM EST / 2019.02.16 1754 UTC
Wind: from the W (270 degrees) at 9 MPH (8 KT):0
Visibility: 1 mile(s):0
Sky conditions: overcast
Weather: light snow; mist
Precipitation last hour: A trace
Temperature: 1.9 F (-16.7 C)
Windchill: -13 F (-25 C):2
Dew Point: -2.0 F (-18.9 C)
Relative Humidity: 83%
Pressure (altimeter): 29.72 in. Hg (1006 hPa)
Pressure tendency: 0.02 inches (0.6 hPa) higher than three hours ago
ob: KLWT 161754Z AUTO 27008KT 1SM -SN BR BKN020 BKN026 OVC032 M17/M19 A2972 RMK AO2 SLP142 P0000 60000 T11671189 11167 21178 50006
cycle: 18

Station Type Date Time Source
KLWT TAF 2019/02/16 18:30 UTC NOAA

TAF KLWT 161729Z 1618/1718 30009KT 3SM -SHSN SCT015 OVC025
TEMPO 1618/1620 1SM -SN SCT007 OVC015
FM162000 32010KT P6SM VCSH SCT003 OVC050 PROB30 1706/1712 2SM -SN BKN015
FM171700 31008KT 6SM BR SCT003 BKN050


Example: see airport list